sensor_id;sensor_type;location;lat;lon;timestamp;P1;durP1;ratioP1;P2;durP2;ratioP2
4686;SDS011;2357;47.316;-1.348;2023-05-07T00:00:33;14.10;;;3.60;;
4686;SDS011;2357;47.316;-1.348;2023-05-07T00:02:59;9.50;;;3.37;;
4686;SDS011;2357;47.316;-1.348;2023-05-07T00:05:25;11.83;;;4.37;;
4686;SDS011;2357;47.316;-1.348;2023-05-07T00:07:50;13.13;;;4.57;;
4686;SDS011;2357;47.316;-1.348;2023-05-07T00:10:17;7.83;;;3.53;;
4686;SDS011;2357;47.316;-1.348;2023-05-07T00:12:44;8.30;;;4.07;;
4686;SDS011;2357;47.316;-1.348;2023-05-07T00:15:09;21.47;;;4.83;;
4686;SDS011;2357;47.316;-1.348;2023-05-07T00:17:35;17.93;;;4.10;;
4686;SDS011;2357;47.316;-1.348;2023-05-07T00:20:01;12.13;;;4.57;;
4686;SDS011;2357;47.316;-1.348;2023-05-07T00:22:28;15.67;;;5.00;;
4686;SDS011;2357;47.316;-1.348;2023-05-07T00:24:55;19.33;;;4.27;;
4686;SDS011;2357;47.316;-1.348;2023-05-07T00:27:20;15.13;;;3.40;;
4686;SDS011;2357;47.316;-1.348;2023-05-07T00:29:46;16.00;;;2.80;;
4686;SDS011;2357;47.316;-1.348;2023-05-07T00:32:12;13.70;;;3.47;;
4686;SDS011;2357;47.316;-1.348;2023-05-07T00:34:38;16.40;;;4.20;;
4686;SDS011;2357;47.316;-1.348;2023-05-07T00:37:04;20.20;;;4.00;;
4686;SDS011;2357;47.316;-1.348;2023-05-07T00:39:32;11.97;;;3.00;;
4686;SDS011;2357;47.316;-1.348;2023-05-07T00:41:58;12.03;;;2.60;;
4686;SDS011;2357;47.316;-1.348;2023-05-07T00:44:24;15.30;;;3.00;;
4686;SDS011;2357;47.316;-1.348;2023-05-07T00:46:50;18.37;;;4.10;;
4686;SDS011;2357;47.316;-1.348;2023-05-07T00:49:16;11.23;;;3.70;;
4686;SDS011;2357;47.316;-1.348;2023-05-07T00:51:42;16.23;;;3.13;;
4686;SDS011;2357;47.316;-1.348;2023-05-07T00:54:08;17.53;;;2.77;;
4686;SDS011;2357;47.316;-1.348;2023-05-07T00:56:34;16.17;;;3.13;;
4686;SDS011;2357;47.316;-1.348;2023-05-07T00:59:01;11.97;;;4.10;;
4686;SDS011;2357;47.316;-1.348;2023-05-07T01:01:27;8.20;;;2.60;;
4686;SDS011;2357;47.316;-1.348;2023-05-07T01:03:53;18.03;;;3.07;;
4686;SDS011;2357;47.316;-1.348;2023-05-07T01:06:20;15.73;;;3.50;;
4686;SDS011;2357;47.316;-1.348;2023-05-07T01:08:46;9.97;;;2.80;;
4686;SDS011;2357;47.316;-1.348;2023-05-07T01:11:13;11.83;;;2.47;;
4686;SDS011;2357;47.316;-1.348;2023-05-07T01:13:39;7.60;;;2.50;;
4686;SDS011;2357;47.316;-1.348;2023-05-07T01:16:06;9.40;;;3.20;;
4686;SDS011;2357;47.316;-1.348;2023-05-07T01:18:33;11.73;;;2.93;;
4686;SDS011;2357;47.316;-1.348;2023-05-07T01:20:59;9.83;;;2.80;;
4686;SDS011;2357;47.316;-1.348;2023-05-07T01:23:26;15.80;;;3.20;;
4686;SDS011;2357;47.316;-1.348;2023-05-07T01:25:53;14.13;;;2.83;;
4686;SDS011;2357;47.316;-1.348;2023-05-07T01:28:20;15.20;;;3.23;;
4686;SDS011;2357;47.316;-1.348;2023-05-07T01:30:47;13.37;;;3.37;;
4686;SDS011;2357;47.316;-1.348;2023-05-07T01:33:18;18.67;;;3.13;;
4686;SDS011;2357;47.316;-1.348;2023-05-07T01:35:47;11.67;;;2.63;;
4686;SDS011;2357;47.316;-1.348;2023-05-07T01:38:16;17.47;;;2.83;;
4686;SDS011;2357;47.316;-1.348;2023-05-07T01:40:43;12.40;;;3.33;;
4686;SDS011;2357;47.316;-1.348;2023-05-07T01:43:09;16.40;;;3.37;;
4686;SDS011;2357;47.316;-1.348;2023-05-07T01:45:35;10.73;;;3.03;;
4686;SDS011;2357;47.316;-1.348;2023-05-07T01:48:01;20.00;;;3.10;;
4686;SDS011;2357;47.316;-1.348;2023-05-07T01:50:28;15.73;;;3.47;;
4686;SDS011;2357;47.316;-1.348;2023-05-07T01:52:55;21.80;;;3.73;;
4686;SDS011;2357;47.316;-1.348;2023-05-07T01:55:21;15.93;;;4.20;;
4686;SDS011;2357;47.316;-1.348;2023-05-07T01:57:47;18.17;;;3.97;;
4686;SDS011;2357;47.316;-1.348;2023-05-07T02:00:13;8.30;;;3.30;;
4686;SDS011;2357;47.316;-1.348;2023-05-07T02:02:39;12.33;;;3.57;;
4686;SDS011;2357;47.316;-1.348;2023-05-07T02:05:04;15.50;;;3.17;;
4686;SDS011;2357;47.316;-1.348;2023-05-07T02:07:30;13.17;;;4.40;;
4686;SDS011;2357;47.316;-1.348;2023-05-07T02:09:56;13.53;;;3.40;;
4686;SDS011;2357;47.316;-1.348;2023-05-07T02:12:22;18.23;;;4.60;;
4686;SDS011;2357;47.316;-1.348;2023-05-07T02:14:48;15.50;;;4.83;;
4686;SDS011;2357;47.316;-1.348;2023-05-07T02:17:14;14.57;;;4.10;;
4686;SDS011;2357;47.316;-1.348;2023-05-07T02:19:39;10.20;;;3.30;;
4686;SDS011;2357;47.316;-1.348;2023-05-07T02:22:05;16.33;;;3.80;;
4686;SDS011;2357;47.316;-1.348;2023-05-07T02:24:31;19.03;;;5.40;;
4686;SDS011;2357;47.316;-1.348;2023-05-07T02:26:57;23.80;;;4.40;;
4686;SDS011;2357;47.316;-1.348;2023-05-07T02:29:22;18.03;;;4.23;;
4686;SDS011;2357;47.316;-1.348;2023-05-07T02:31:48;12.93;;;4.03;;
4686;SDS011;2357;47.316;-1.348;2023-05-07T02:34:18;14.40;;;3.93;;
4686;SDS011;2357;47.316;-1.348;2023-05-07T02:36:43;16.77;;;4.20;;
4686;SDS011;2357;47.316;-1.348;2023-05-07T02:39:10;23.17;;;5.83;;
4686;SDS011;2357;47.316;-1.348;2023-05-07T02:41:36;11.20;;;3.67;;
4686;SDS011;2357;47.316;-1.348;2023-05-07T02:44:02;14.93;;;4.90;;
4686;SDS011;2357;47.316;-1.348;2023-05-07T02:46:28;21.50;;;3.90;;
4686;SDS011;2357;47.316;-1.348;2023-05-07T02:48:53;14.83;;;4.40;;
4686;SDS011;2357;47.316;-1.348;2023-05-07T02:51:19;14.80;;;5.00;;
4686;SDS011;2357;47.316;-1.348;2023-05-07T02:53:46;14.37;;;3.50;;
4686;SDS011;2357;47.316;-1.348;2023-05-07T02:56:12;8.23;;;3.63;;
4686;SDS011;2357;47.316;-1.348;2023-05-07T02:58:37;16.93;;;5.27;;
4686;SDS011;2357;47.316;-1.348;2023-05-07T03:01:09;8.57;;;3.50;;
4686;SDS011;2357;47.316;-1.348;2023-05-07T03:03:35;12.00;;;3.30;;
4686;SDS011;2357;47.316;-1.348;2023-05-07T03:06:01;14.70;;;3.43;;
4686;SDS011;2357;47.316;-1.348;2023-05-07T03:08:27;14.80;;;3.80;;
4686;SDS011;2357;47.316;-1.348;2023-05-07T03:10:52;9.43;;;2.90;;
4686;SDS011;2357;47.316;-1.348;2023-05-07T03:13:18;11.13;;;3.33;;
4686;SDS011;2357;47.316;-1.348;2023-05-07T03:15:44;4.00;;;2.83;;
4686;SDS011;2357;47.316;-1.348;2023-05-07T03:18:10;10.90;;;3.27;;
4686;SDS011;2357;47.316;-1.348;2023-05-07T03:20:36;12.80;;;2.93;;
4686;SDS011;2357;47.316;-1.348;2023-05-07T03:23:01;14.07;;;4.83;;
4686;SDS011;2357;47.316;-1.348;2023-05-07T03:25:27;12.60;;;2.70;;
4686;SDS011;2357;47.316;-1.348;2023-05-07T03:27:55;14.77;;;3.10;;
4686;SDS011;2357;47.316;-1.348;2023-05-07T03:30:21;10.30;;;2.67;;
4686;SDS011;2357;47.316;-1.348;2023-05-07T03:32:47;5.77;;;2.80;;
4686;SDS011;2357;47.316;-1.348;2023-05-07T03:35:12;6.50;;;3.03;;
4686;SDS011;2357;47.316;-1.348;2023-05-07T03:37:38;9.70;;;2.77;;
4686;SDS011;2357;47.316;-1.348;2023-05-07T03:40:05;8.90;;;3.47;;
4686;SDS011;2357;47.316;-1.348;2023-05-07T03:42:31;9.53;;;2.67;;
4686;SDS011;2357;47.316;-1.348;2023-05-07T03:44:57;8.90;;;2.80;;
4686;SDS011;2357;47.316;-1.348;2023-05-07T03:47:22;9.90;;;2.90;;
4686;SDS011;2357;47.316;-1.348;2023-05-07T03:49:48;9.83;;;3.50;;
4686;SDS011;2357;47.316;-1.348;2023-05-07T03:52:15;10.80;;;2.63;;
4686;SDS011;2357;47.316;-1.348;2023-05-07T03:54:41;8.03;;;3.10;;
4686;SDS011;2357;47.316;-1.348;2023-05-07T03:57:06;6.83;;;2.30;;
4686;SDS011;2357;47.316;-1.348;2023-05-07T03:59:32;11.23;;;2.70;;
4686;SDS011;2357;47.316;-1.348;2023-05-07T04:01:57;4.80;;;2.53;;
4686;SDS011;2357;47.316;-1.348;2023-05-07T04:04:23;10.13;;;3.23;;
4686;SDS011;2357;47.316;-1.348;2023-05-07T04:06:49;6.60;;;2.00;;
4686;SDS011;2357;47.316;-1.348;2023-05-07T04:09:14;4.67;;;2.10;;
4686;SDS011;2357;47.316;-1.348;2023-05-07T04:11:40;2.07;;;1.40;;
4686;SDS011;2357;47.316;-1.348;2023-05-07T04:14:06;2.80;;;1.30;;
4686;SDS011;2357;47.316;-1.348;2023-05-07T04:16:31;2.07;;;1.37;;
4686;SDS011;2357;47.316;-1.348;2023-05-07T04:18:57;1.27;;;1.07;;
4686;SDS011;2357;47.316;-1.348;2023-05-07T04:21:23;2.60;;;0.70;;
4686;SDS011;2357;47.316;-1.348;2023-05-07T04:23:48;4.70;;;2.07;;
4686;SDS011;2357;47.316;-1.348;2023-05-07T04:26:15;1.33;;;0.80;;
4686;SDS011;2357;47.316;-1.348;2023-05-07T04:28:41;0.87;;;0.60;;
4686;SDS011;2357;47.316;-1.348;2023-05-07T04:31:07;0.70;;;0.70;;
4686;SDS011;2357;47.316;-1.348;2023-05-07T04:33:33;0.70;;;0.60;;
4686;SDS011;2357;47.316;-1.348;2023-05-07T04:36:01;14.53;;;1.73;;
4686;SDS011;2357;47.316;-1.348;2023-05-07T04:38:30;0.90;;;0.80;;
4686;SDS011;2357;47.316;-1.348;2023-05-07T04:41:05;1.90;;;0.90;;
4686;SDS011;2357;47.316;-1.348;2023-05-07T04:43:31;3.37;;;0.73;;
4686;SDS011;2357;47.316;-1.348;2023-05-07T04:45:57;0.93;;;0.80;;
4686;SDS011;2357;47.316;-1.348;2023-05-07T04:48:23;1.40;;;1.07;;
4686;SDS011;2357;47.316;-1.348;2023-05-07T04:50:49;1.57;;;0.90;;
4686;SDS011;2357;47.316;-1.348;2023-05-07T04:53:16;4.67;;;1.03;;
4686;SDS011;2357;47.316;-1.348;2023-05-07T04:55:42;1.50;;;1.17;;
4686;SDS011;2357;47.316;-1.348;2023-05-07T04:58:08;3.93;;;2.83;;
4686;SDS011;2357;47.316;-1.348;2023-05-07T05:00:34;4.13;;;1.47;;
4686;SDS011;2357;47.316;-1.348;2023-05-07T05:03:00;2.20;;;1.00;;
4686;SDS011;2357;47.316;-1.348;2023-05-07T05:05:25;7.67;;;1.30;;
4686;SDS011;2357;47.316;-1.348;2023-05-07T05:07:51;8.33;;;1.40;;
4686;SDS011;2357;47.316;-1.348;2023-05-07T05:10:17;6.70;;;2.13;;
4686;SDS011;2357;47.316;-1.348;2023-05-07T05:12:42;1.50;;;1.20;;
4686;SDS011;2357;47.316;-1.348;2023-05-07T05:15:08;3.87;;;1.53;;
4686;SDS011;2357;47.316;-1.348;2023-05-07T05:17:36;3.23;;;1.00;;
4686;SDS011;2357;47.316;-1.348;2023-05-07T05:20:02;2.70;;;2.50;;
4686;SDS011;2357;47.316;-1.348;2023-05-07T05:22:28;2.20;;;1.23;;
4686;SDS011;2357;47.316;-1.348;2023-05-07T05:24:56;2.50;;;1.43;;
4686;SDS011;2357;47.316;-1.348;2023-05-07T05:27:21;1.00;;;0.90;;
4686;SDS011;2357;47.316;-1.348;2023-05-07T05:29:47;0.80;;;0.80;;
4686;SDS011;2357;47.316;-1.348;2023-05-07T05:32:12;2.80;;;1.23;;
4686;SDS011;2357;47.316;-1.348;2023-05-07T05:34:38;1.90;;;1.07;;
4686;SDS011;2357;47.316;-1.348;2023-05-07T05:37:04;1.93;;;1.50;;
4686;SDS011;2357;47.316;-1.348;2023-05-07T05:39:29;2.57;;;0.87;;
4686;SDS011;2357;47.316;-1.348;2023-05-07T05:41:55;2.30;;;0.80;;
4686;SDS011;2357;47.316;-1.348;2023-05-07T05:44:21;2.90;;;0.90;;
4686;SDS011;2357;47.316;-1.348;2023-05-07T05:46:47;0.63;;;0.63;;
4686;SDS011;2357;47.316;-1.348;2023-05-07T05:49:14;0.80;;;0.80;;
4686;SDS011;2357;47.316;-1.348;2023-05-07T05:51:40;2.83;;;0.77;;
4686;SDS011;2357;47.316;-1.348;2023-05-07T05:54:06;1.70;;;0.70;;
4686;SDS011;2357;47.316;-1.348;2023-05-07T05:56:31;2.70;;;1.20;;
4686;SDS011;2357;47.316;-1.348;2023-05-07T05:58:57;0.70;;;0.67;;
4686;SDS011;2357;47.316;-1.348;2023-05-07T06:01:23;1.33;;;0.70;;
4686;SDS011;2357;47.316;-1.348;2023-05-07T06:03:49;0.77;;;0.73;;
4686;SDS011;2357;47.316;-1.348;2023-05-07T06:06:14;1.00;;;0.50;;
4686;SDS011;2357;47.316;-1.348;2023-05-07T06:08:40;0.50;;;0.50;;
4686;SDS011;2357;47.316;-1.348;2023-05-07T06:11:07;5.30;;;0.80;;
4686;SDS011;2357;47.316;-1.348;2023-05-07T06:13:32;3.03;;;0.60;;
4686;SDS011;2357;47.316;-1.348;2023-05-07T06:15:58;1.93;;;1.07;;
4686;SDS011;2357;47.316;-1.348;2023-05-07T06:18:23;0.77;;;0.70;;
4686;SDS011;2357;47.316;-1.348;2023-05-07T06:20:50;3.90;;;0.60;;
4686;SDS011;2357;47.316;-1.348;2023-05-07T06:23:16;1.17;;;0.80;;
4686;SDS011;2357;47.316;-1.348;2023-05-07T06:25:45;0.70;;;0.70;;
4686;SDS011;2357;47.316;-1.348;2023-05-07T06:28:13;1.33;;;0.60;;
4686;SDS011;2357;47.316;-1.348;2023-05-07T06:30:39;0.80;;;0.50;;
4686;SDS011;2357;47.316;-1.348;2023-05-07T06:33:05;0.60;;;0.60;;
4686;SDS011;2357;47.316;-1.348;2023-05-07T06:35:31;1.77;;;0.70;;
4686;SDS011;2357;47.316;-1.348;2023-05-07T06:37:56;3.80;;;0.77;;
4686;SDS011;2357;47.316;-1.348;2023-05-07T06:40:22;1.90;;;0.67;;
4686;SDS011;2357;47.316;-1.348;2023-05-07T06:42:47;7.00;;;1.00;;
4686;SDS011;2357;47.316;-1.348;2023-05-07T06:45:13;0.80;;;0.50;;
4686;SDS011;2357;47.316;-1.348;2023-05-07T06:47:39;0.50;;;0.50;;
4686;SDS011;2357;47.316;-1.348;2023-05-07T06:50:05;0.93;;;0.70;;
4686;SDS011;2357;47.316;-1.348;2023-05-07T06:52:31;0.53;;;0.53;;
4686;SDS011;2357;47.316;-1.348;2023-05-07T06:54:56;0.60;;;0.60;;
4686;SDS011;2357;47.316;-1.348;2023-05-07T06:57:22;0.63;;;0.63;;
4686;SDS011;2357;47.316;-1.348;2023-05-07T06:59:48;2.30;;;0.70;;
4686;SDS011;2357;47.316;-1.348;2023-05-07T07:02:14;0.60;;;0.60;;
4686;SDS011;2357;47.316;-1.348;2023-05-07T07:04:40;2.93;;;0.60;;
4686;SDS011;2357;47.316;-1.348;2023-05-07T07:07:06;1.50;;;0.67;;
4686;SDS011;2357;47.316;-1.348;2023-05-07T07:09:32;0.73;;;0.60;;
4686;SDS011;2357;47.316;-1.348;2023-05-07T07:11:58;0.50;;;0.50;;
4686;SDS011;2357;47.316;-1.348;2023-05-07T07:14:24;0.50;;;0.50;;
4686;SDS011;2357;47.316;-1.348;2023-05-07T07:16:49;0.40;;;0.40;;
4686;SDS011;2357;47.316;-1.348;2023-05-07T07:19:15;0.80;;;0.50;;
4686;SDS011;2357;47.316;-1.348;2023-05-07T07:21:41;0.50;;;0.50;;
4686;SDS011;2357;47.316;-1.348;2023-05-07T07:24:07;1.53;;;0.50;;
4686;SDS011;2357;47.316;-1.348;2023-05-07T07:26:32;1.03;;;0.60;;
4686;SDS011;2357;47.316;-1.348;2023-05-07T07:28:58;0.40;;;0.40;;
4686;SDS011;2357;47.316;-1.348;2023-05-07T07:31:24;2.77;;;0.80;;
4686;SDS011;2357;47.316;-1.348;2023-05-07T07:33:49;0.50;;;0.50;;
4686;SDS011;2357;47.316;-1.348;2023-05-07T07:36:15;0.50;;;0.50;;
4686;SDS011;2357;47.316;-1.348;2023-05-07T07:38:41;0.50;;;0.50;;
4686;SDS011;2357;47.316;-1.348;2023-05-07T07:41:09;0.40;;;0.40;;
4686;SDS011;2357;47.316;-1.348;2023-05-07T07:43:35;0.50;;;0.50;;
4686;SDS011;2357;47.316;-1.348;2023-05-07T07:46:01;0.50;;;0.50;;
4686;SDS011;2357;47.316;-1.348;2023-05-07T07:48:26;0.40;;;0.40;;
4686;SDS011;2357;47.316;-1.348;2023-05-07T07:50:52;0.40;;;0.40;;
4686;SDS011;2357;47.316;-1.348;2023-05-07T07:53:18;0.67;;;0.57;;
4686;SDS011;2357;47.316;-1.348;2023-05-07T07:55:44;0.40;;;0.40;;
4686;SDS011;2357;47.316;-1.348;2023-05-07T07:58:10;0.63;;;0.63;;
4686;SDS011;2357;47.316;-1.348;2023-05-07T08:00:36;0.50;;;0.50;;
4686;SDS011;2357;47.316;-1.348;2023-05-07T08:03:01;0.60;;;0.60;;
4686;SDS011;2357;47.316;-1.348;2023-05-07T08:05:28;0.97;;;0.40;;
4686;SDS011;2357;47.316;-1.348;2023-05-07T08:07:54;4.23;;;0.63;;
4686;SDS011;2357;47.316;-1.348;2023-05-07T08:10:19;0.60;;;0.60;;
4686;SDS011;2357;47.316;-1.348;2023-05-07T08:12:49;0.40;;;0.40;;
4686;SDS011;2357;47.316;-1.348;2023-05-07T08:15:15;0.60;;;0.60;;
4686;SDS011;2357;47.316;-1.348;2023-05-07T08:17:41;0.60;;;0.60;;
4686;SDS011;2357;47.316;-1.348;2023-05-07T08:20:07;0.40;;;0.40;;
4686;SDS011;2357;47.316;-1.348;2023-05-07T08:22:36;0.80;;;0.60;;
4686;SDS011;2357;47.316;-1.348;2023-05-07T08:25:02;0.50;;;0.47;;
4686;SDS011;2357;47.316;-1.348;2023-05-07T08:27:28;0.40;;;0.40;;
4686;SDS011;2357;47.316;-1.348;2023-05-07T08:29:54;3.37;;;0.47;;
4686;SDS011;2357;47.316;-1.348;2023-05-07T08:32:20;1.03;;;0.60;;
4686;SDS011;2357;47.316;-1.348;2023-05-07T08:34:45;0.50;;;0.50;;
4686;SDS011;2357;47.316;-1.348;2023-05-07T08:37:12;1.23;;;0.40;;
4686;SDS011;2357;47.316;-1.348;2023-05-07T08:39:37;0.40;;;0.40;;
4686;SDS011;2357;47.316;-1.348;2023-05-07T08:42:03;0.60;;;0.60;;
4686;SDS011;2357;47.316;-1.348;2023-05-07T08:44:32;1.03;;;0.50;;
4686;SDS011;2357;47.316;-1.348;2023-05-07T08:47:00;0.73;;;0.43;;
4686;SDS011;2357;47.316;-1.348;2023-05-07T08:49:29;0.40;;;0.40;;
4686;SDS011;2357;47.316;-1.348;2023-05-07T08:51:55;1.43;;;0.50;;
4686;SDS011;2357;47.316;-1.348;2023-05-07T08:54:21;0.40;;;0.40;;
4686;SDS011;2357;47.316;-1.348;2023-05-07T08:56:47;0.40;;;0.40;;
4686;SDS011;2357;47.316;-1.348;2023-05-07T08:59:13;6.87;;;0.50;;
4686;SDS011;2357;47.316;-1.348;2023-05-07T09:01:38;0.50;;;0.50;;
4686;SDS011;2357;47.316;-1.348;2023-05-07T09:04:04;0.40;;;0.40;;
4686;SDS011;2357;47.316;-1.348;2023-05-07T09:06:31;0.40;;;0.40;;
4686;SDS011;2357;47.316;-1.348;2023-05-07T09:08:58;0.80;;;0.50;;
4686;SDS011;2357;47.316;-1.348;2023-05-07T09:11:26;0.40;;;0.40;;
4686;SDS011;2357;47.316;-1.348;2023-05-07T09:13:55;0.43;;;0.43;;
4686;SDS011;2357;47.316;-1.348;2023-05-07T09:16:23;0.40;;;0.40;;
4686;SDS011;2357;47.316;-1.348;2023-05-07T09:18:51;0.50;;;0.50;;
4686;SDS011;2357;47.316;-1.348;2023-05-07T09:21:18;0.40;;;0.40;;
4686;SDS011;2357;47.316;-1.348;2023-05-07T09:23:44;1.00;;;1.00;;
4686;SDS011;2357;47.316;-1.348;2023-05-07T09:26:10;0.60;;;0.40;;
4686;SDS011;2357;47.316;-1.348;2023-05-07T09:28:39;0.43;;;0.43;;
4686;SDS011;2357;47.316;-1.348;2023-05-07T09:31:06;0.40;;;0.40;;
4686;SDS011;2357;47.316;-1.348;2023-05-07T09:33:32;0.43;;;0.43;;
4686;SDS011;2357;47.316;-1.348;2023-05-07T09:35:58;0.40;;;0.40;;
4686;SDS011;2357;47.316;-1.348;2023-05-07T09:38:26;0.70;;;0.50;;
4686;SDS011;2357;47.316;-1.348;2023-05-07T09:43:31;0.63;;;0.50;;
4686;SDS011;2357;47.316;-1.348;2023-05-07T09:46:05;0.40;;;0.40;;
4686;SDS011;2357;47.316;-1.348;2023-05-07T09:48:39;0.50;;;0.40;;
4686;SDS011;2357;47.316;-1.348;2023-05-07T09:51:15;0.40;;;0.40;;
4686;SDS011;2357;47.316;-1.348;2023-05-07T09:54:03;0.40;;;0.40;;
4686;SDS011;2357;47.316;-1.348;2023-05-07T09:56:30;0.60;;;0.60;;
4686;SDS011;2357;47.316;-1.348;2023-05-07T09:58:57;0.50;;;0.50;;
4686;SDS011;2357;47.316;-1.348;2023-05-07T10:01:25;0.83;;;0.47;;
4686;SDS011;2357;47.316;-1.348;2023-05-07T10:03:52;0.50;;;0.50;;
4686;SDS011;2357;47.316;-1.348;2023-05-07T10:06:19;1.07;;;0.50;;
4686;SDS011;2357;47.316;-1.348;2023-05-07T10:08:45;0.40;;;0.40;;
4686;SDS011;2357;47.316;-1.348;2023-05-07T10:11:11;0.53;;;0.50;;
4686;SDS011;2357;47.316;-1.348;2023-05-07T10:13:39;3.10;;;0.87;;
4686;SDS011;2357;47.316;-1.348;2023-05-07T10:16:06;0.80;;;0.50;;
4686;SDS011;2357;47.316;-1.348;2023-05-07T10:18:32;0.50;;;0.50;;
4686;SDS011;2357;47.316;-1.348;2023-05-07T10:21:01;0.50;;;0.50;;
4686;SDS011;2357;47.316;-1.348;2023-05-07T10:23:36;0.50;;;0.50;;
4686;SDS011;2357;47.316;-1.348;2023-05-07T10:26:04;1.10;;;0.50;;
4686;SDS011;2357;47.316;-1.348;2023-05-07T10:28:34;1.03;;;0.50;;
4686;SDS011;2357;47.316;-1.348;2023-05-07T10:31:23;0.97;;;0.40;;
4686;SDS011;2357;47.316;-1.348;2023-05-07T10:34:09;0.60;;;0.40;;
4686;SDS011;2357;47.316;-1.348;2023-05-07T10:36:40;0.50;;;0.50;;
4686;SDS011;2357;47.316;-1.348;2023-05-07T10:39:07;0.60;;;0.60;;
4686;SDS011;2357;47.316;-1.348;2023-05-07T10:41:33;0.50;;;0.50;;
4686;SDS011;2357;47.316;-1.348;2023-05-07T10:43:59;1.20;;;0.53;;
4686;SDS011;2357;47.316;-1.348;2023-05-07T10:46:27;0.40;;;0.40;;
4686;SDS011;2357;47.316;-1.348;2023-05-07T10:51:33;1.17;;;0.50;;
4686;SDS011;2357;47.316;-1.348;2023-05-07T10:56:35;0.40;;;0.40;;
4686;SDS011;2357;47.316;-1.348;2023-05-07T11:01:55;0.40;;;0.40;;
4686;SDS011;2357;47.316;-1.348;2023-05-07T11:04:27;0.50;;;0.40;;
4686;SDS011;2357;47.316;-1.348;2023-05-07T11:15:04;0.93;;;0.53;;
4686;SDS011;2357;47.316;-1.348;2023-05-07T11:17:31;2.50;;;0.50;;
4686;SDS011;2357;47.316;-1.348;2023-05-07T11:19:59;0.40;;;0.40;;
4686;SDS011;2357;47.316;-1.348;2023-05-07T11:25:04;1.20;;;0.53;;
4686;SDS011;2357;47.316;-1.348;2023-05-07T11:27:31;0.50;;;0.50;;
4686;SDS011;2357;47.316;-1.348;2023-05-07T11:29:57;0.40;;;0.40;;
4686;SDS011;2357;47.316;-1.348;2023-05-07T11:32:30;0.60;;;0.60;;
4686;SDS011;2357;47.316;-1.348;2023-05-07T11:34:58;1.40;;;0.93;;
4686;SDS011;2357;47.316;-1.348;2023-05-07T11:37:25;0.60;;;0.60;;
4686;SDS011;2357;47.316;-1.348;2023-05-07T11:40:04;0.60;;;0.50;;
4686;SDS011;2357;47.316;-1.348;2023-05-07T11:42:38;1.33;;;0.50;;
4686;SDS011;2357;47.316;-1.348;2023-05-07T11:45:06;0.50;;;0.50;;
4686;SDS011;2357;47.316;-1.348;2023-05-07T11:47:33;1.33;;;0.60;;
4686;SDS011;2357;47.316;-1.348;2023-05-07T11:50:03;1.33;;;0.40;;
4686;SDS011;2357;47.316;-1.348;2023-05-07T11:52:30;0.60;;;0.50;;
4686;SDS011;2357;47.316;-1.348;2023-05-07T11:54:58;0.50;;;0.50;;
4686;SDS011;2357;47.316;-1.348;2023-05-07T11:57:25;2.43;;;0.40;;
4686;SDS011;2357;47.316;-1.348;2023-05-07T11:59:57;0.50;;;0.50;;
4686;SDS011;2357;47.316;-1.348;2023-05-07T12:02:24;1.57;;;0.50;;
4686;SDS011;2357;47.316;-1.348;2023-05-07T12:04:51;0.80;;;0.80;;
4686;SDS011;2357;47.316;-1.348;2023-05-07T12:07:17;1.27;;;0.40;;
4686;SDS011;2357;47.316;-1.348;2023-05-07T12:09:44;0.60;;;0.60;;
4686;SDS011;2357;47.316;-1.348;2023-05-07T12:12:10;0.50;;;0.50;;
4686;SDS011;2357;47.316;-1.348;2023-05-07T12:14:39;1.90;;;0.50;;
4686;SDS011;2357;47.316;-1.348;2023-05-07T12:17:09;1.10;;;0.53;;
4686;SDS011;2357;47.316;-1.348;2023-05-07T12:19:37;0.50;;;0.50;;
4686;SDS011;2357;47.316;-1.348;2023-05-07T12:22:04;1.27;;;0.83;;
4686;SDS011;2357;47.316;-1.348;2023-05-07T12:27:10;0.57;;;0.57;;
4686;SDS011;2357;47.316;-1.348;2023-05-07T12:29:36;0.80;;;0.47;;
4686;SDS011;2357;47.316;-1.348;2023-05-07T12:32:05;2.23;;;0.70;;
4686;SDS011;2357;47.316;-1.348;2023-05-07T12:34:31;0.77;;;0.70;;
4686;SDS011;2357;47.316;-1.348;2023-05-07T12:36:57;0.60;;;0.60;;
4686;SDS011;2357;47.316;-1.348;2023-05-07T12:39:28;1.70;;;1.17;;
4686;SDS011;2357;47.316;-1.348;2023-05-07T12:41:57;1.33;;;0.80;;
4686;SDS011;2357;47.316;-1.348;2023-05-07T12:44:33;0.70;;;0.70;;
4686;SDS011;2357;47.316;-1.348;2023-05-07T12:47:02;9.40;;;0.90;;
4686;SDS011;2357;47.316;-1.348;2023-05-07T12:49:28;2.20;;;0.67;;
4686;SDS011;2357;47.316;-1.348;2023-05-07T12:51:54;1.07;;;0.87;;
4686;SDS011;2357;47.316;-1.348;2023-05-07T12:54:33;4.67;;;1.00;;
4686;SDS011;2357;47.316;-1.348;2023-05-07T12:57:03;1.50;;;0.73;;
4686;SDS011;2357;47.316;-1.348;2023-05-07T12:59:34;2.40;;;0.50;;
4686;SDS011;2357;47.316;-1.348;2023-05-07T13:02:01;0.40;;;0.40;;
4686;SDS011;2357;47.316;-1.348;2023-05-07T13:04:27;1.27;;;0.50;;
4686;SDS011;2357;47.316;-1.348;2023-05-07T13:06:52;3.20;;;0.53;;
4686;SDS011;2357;47.316;-1.348;2023-05-07T13:09:18;1.43;;;0.50;;
4686;SDS011;2357;47.316;-1.348;2023-05-07T13:11:43;0.70;;;0.60;;
4686;SDS011;2357;47.316;-1.348;2023-05-07T13:14:09;0.70;;;0.70;;
4686;SDS011;2357;47.316;-1.348;2023-05-07T13:16:34;1.07;;;0.50;;
4686;SDS011;2357;47.316;-1.348;2023-05-07T13:19:00;1.83;;;0.80;;
4686;SDS011;2357;47.316;-1.348;2023-05-07T13:21:26;2.53;;;0.70;;
4686;SDS011;2357;47.316;-1.348;2023-05-07T13:23:51;3.63;;;0.73;;
4686;SDS011;2357;47.316;-1.348;2023-05-07T13:26:17;5.17;;;0.90;;
4686;SDS011;2357;47.316;-1.348;2023-05-07T13:28:43;4.13;;;2.87;;
4686;SDS011;2357;47.316;-1.348;2023-05-07T13:31:09;2.07;;;0.63;;
4686;SDS011;2357;47.316;-1.348;2023-05-07T13:33:34;1.57;;;0.63;;
4686;SDS011;2357;47.316;-1.348;2023-05-07T13:36:01;1.47;;;0.80;;
4686;SDS011;2357;47.316;-1.348;2023-05-07T13:38:29;3.90;;;0.70;;
4686;SDS011;2357;47.316;-1.348;2023-05-07T13:40:55;0.63;;;0.63;;
4686;SDS011;2357;47.316;-1.348;2023-05-07T13:43:21;2.13;;;0.70;;
4686;SDS011;2357;47.316;-1.348;2023-05-07T13:45:46;3.27;;;0.90;;
4686;SDS011;2357;47.316;-1.348;2023-05-07T13:48:12;5.70;;;1.10;;
4686;SDS011;2357;47.316;-1.348;2023-05-07T13:50:37;2.10;;;0.87;;
4686;SDS011;2357;47.316;-1.348;2023-05-07T13:53:03;0.87;;;0.70;;
4686;SDS011;2357;47.316;-1.348;2023-05-07T13:55:29;1.63;;;0.73;;
4686;SDS011;2357;47.316;-1.348;2023-05-07T13:57:59;0.80;;;0.80;;
4686;SDS011;2357;47.316;-1.348;2023-05-07T14:00:26;0.43;;;0.43;;
4686;SDS011;2357;47.316;-1.348;2023-05-07T14:02:53;0.60;;;0.60;;
4686;SDS011;2357;47.316;-1.348;2023-05-07T14:05:20;0.40;;;0.40;;
4686;SDS011;2357;47.316;-1.348;2023-05-07T14:07:48;0.70;;;0.53;;
4686;SDS011;2357;47.316;-1.348;2023-05-07T14:10:16;0.73;;;0.50;;
4686;SDS011;2357;47.316;-1.348;2023-05-07T14:12:43;0.50;;;0.50;;
4686;SDS011;2357;47.316;-1.348;2023-05-07T14:15:09;0.50;;;0.50;;
4686;SDS011;2357;47.316;-1.348;2023-05-07T14:17:35;0.50;;;0.50;;
4686;SDS011;2357;47.316;-1.348;2023-05-07T14:20:01;0.60;;;0.47;;
4686;SDS011;2357;47.316;-1.348;2023-05-07T14:22:27;0.67;;;0.50;;
4686;SDS011;2357;47.316;-1.348;2023-05-07T14:24:52;0.57;;;0.40;;
4686;SDS011;2357;47.316;-1.348;2023-05-07T14:27:18;0.43;;;0.43;;
4686;SDS011;2357;47.316;-1.348;2023-05-07T14:29:43;0.40;;;0.40;;
4686;SDS011;2357;47.316;-1.348;2023-05-07T14:32:10;0.90;;;0.60;;
4686;SDS011;2357;47.316;-1.348;2023-05-07T14:34:36;1.03;;;0.50;;
4686;SDS011;2357;47.316;-1.348;2023-05-07T14:37:01;0.50;;;0.50;;
4686;SDS011;2357;47.316;-1.348;2023-05-07T14:39:28;0.40;;;0.40;;
4686;SDS011;2357;47.316;-1.348;2023-05-07T14:41:54;0.50;;;0.50;;
4686;SDS011;2357;47.316;-1.348;2023-05-07T14:44:21;0.40;;;0.40;;
4686;SDS011;2357;47.316;-1.348;2023-05-07T14:46:46;0.53;;;0.53;;
4686;SDS011;2357;47.316;-1.348;2023-05-07T14:49:13;0.67;;;0.50;;
4686;SDS011;2357;47.316;-1.348;2023-05-07T14:51:42;0.50;;;0.50;;
4686;SDS011;2357;47.316;-1.348;2023-05-07T14:54:11;0.40;;;0.40;;
4686;SDS011;2357;47.316;-1.348;2023-05-07T14:56:38;1.43;;;0.70;;
4686;SDS011;2357;47.316;-1.348;2023-05-07T14:59:03;0.40;;;0.40;;
4686;SDS011;2357;47.316;-1.348;2023-05-07T15:01:29;0.50;;;0.50;;
4686;SDS011;2357;47.316;-1.348;2023-05-07T15:03:55;0.60;;;0.47;;
4686;SDS011;2357;47.316;-1.348;2023-05-07T15:06:21;0.40;;;0.40;;
4686;SDS011;2357;47.316;-1.348;2023-05-07T15:08:47;0.53;;;0.40;;
4686;SDS011;2357;47.316;-1.348;2023-05-07T15:11:13;1.17;;;0.50;;
4686;SDS011;2357;47.316;-1.348;2023-05-07T15:13:42;2.33;;;0.50;;
4686;SDS011;2357;47.316;-1.348;2023-05-07T15:16:07;0.80;;;0.50;;
4686;SDS011;2357;47.316;-1.348;2023-05-07T15:18:33;0.70;;;0.50;;